createdAt,value
2023-05-09T00:00:16.588Z,99989.78
2023-05-09T00:02:49.410Z,99982.13
2023-05-09T00:05:22.576Z,99981.97
2023-05-09T00:07:55.740Z,99972.25
2023-05-09T00:10:28.708Z,99972.25
2023-05-09T00:13:01.730Z,99980.53
2023-05-09T00:15:36.007Z,99976.59
2023-05-09T00:18:09.307Z,99976.59
2023-05-09T00:20:42.283Z,99984.13
2023-05-09T00:23:15.148Z,99979.22
2023-05-09T00:25:48.029Z,99979.44
2023-05-09T00:28:21.271Z,99970.50
2023-05-09T00:30:55.743Z,99981.44
2023-05-09T00:33:28.609Z,99976.59
2023-05-09T00:36:01.471Z,99975.41
2023-05-09T00:38:34.505Z,99981.59
2023-05-09T00:41:07.359Z,99977.06
2023-05-09T00:43:40.233Z,99971.19
2023-05-09T00:46:14.387Z,99977.47
2023-05-09T00:48:47.639Z,99980.72
2023-05-09T00:51:21.351Z,99975.78
2023-05-09T00:53:54.149Z,99975.44
2023-05-09T00:56:27.009Z,99981.53
2023-05-09T00:58:59.908Z,99985.09
2023-05-09T01:01:34.256Z,99979.81
2023-05-09T01:04:07.265Z,99979.59
2023-05-09T01:06:46.263Z,99978.94
2023-05-09T01:09:24.757Z,99985.56
2023-05-09T01:12:01.852Z,99985.91
2023-05-09T01:14:39.034Z,99985.69
2023-05-09T01:17:17.240Z,99977.69
2023-05-09T01:19:55.224Z,99987.50
2023-05-09T01:22:31.064Z,99984.47
2023-05-09T01:25:19.634Z,99984.31
2023-05-09T01:27:58.681Z,99986.31
2023-05-09T01:30:35.774Z,99987.56
2023-05-09T01:33:09.260Z,99992.38
2023-05-09T01:35:45.148Z,99999.13
2023-05-09T01:38:19.791Z,99993.31
2023-05-09T01:40:54.485Z,99995.84
2023-05-09T01:43:29.751Z,100000.19
2023-05-09T01:46:06.143Z,100002.59
2023-05-09T01:48:39.326Z,100004.25
2023-05-09T01:51:15.425Z,99997.56
2023-05-09T01:53:49.324Z,99999.91
2023-05-09T01:56:23.543Z,99995.97
2023-05-09T01:58:57.152Z,99994.88
2023-05-09T02:01:32.246Z,99997.66
2023-05-09T02:04:06.241Z,99992.81
2023-05-09T02:06:39.813Z,99996.75
2023-05-09T02:09:13.346Z,99994.09
2023-05-09T02:11:46.998Z,100000.22
2023-05-09T02:14:19.908Z,100000.06
2023-05-09T02:16:54.244Z,99999.59
2023-05-09T02:19:28.420Z,100004.59
2023-05-09T02:22:01.623Z,99992.00
2023-05-09T02:24:35.366Z,100002.28
2023-05-09T02:27:08.631Z,100005.19
2023-05-09T02:29:44.420Z,100010.66
2023-05-09T02:32:21.360Z,100009.56
2023-05-09T02:34:55.636Z,100011.56
2023-05-09T02:37:28.867Z,100014.06
2023-05-09T02:40:02.530Z,100017.88
2023-05-09T02:42:35.412Z,100023.28
2023-05-09T02:45:09.913Z,100027.69
2023-05-09T02:47:45.007Z,100026.88
2023-05-09T02:50:18.007Z,100024.88
2023-05-09T02:52:50.923Z,100016.31
2023-05-09T02:55:23.883Z,100029.56
2023-05-09T02:58:09.227Z,100031.50
2023-05-09T03:00:46.268Z,100029.31
2023-05-09T03:03:22.223Z,100030.59
2023-05-09T03:05:55.232Z,100029.13
2023-05-09T03:08:28.135Z,100035.50
2023-05-09T03:11:01.135Z,100039.56
2023-05-09T03:13:34.064Z,100047.22
2023-05-09T03:16:07.331Z,100059.50
2023-05-09T03:18:41.531Z,100061.59
2023-05-09T03:21:14.396Z,100065.94
2023-05-09T03:23:47.550Z,100068.22
2023-05-09T03:26:20.924Z,100077.97
2023-05-09T03:28:53.834Z,100074.75
2023-05-09T03:31:27.793Z,100074.59
2023-05-09T03:34:01.962Z,100082.19
2023-05-09T03:36:34.750Z,100086.16
2023-05-09T03:39:08.360Z,100089.34
2023-05-09T03:41:41.921Z,100091.56
2023-05-09T03:44:14.753Z,100093.38
2023-05-09T03:46:47.605Z,100092.09
2023-05-09T03:49:21.888Z,100097.31
2023-05-09T03:51:54.826Z,100094.06
2023-05-09T03:54:29.838Z,100097.72
2023-05-09T03:57:02.779Z,100103.94
2023-05-09T03:59:35.669Z,100105.78
2023-05-09T04:02:08.638Z,100101.91
2023-05-09T04:04:42.829Z,100112.50
2023-05-09T04:07:15.721Z,100110.84
2023-05-09T04:09:49.566Z,100116.38
2023-05-09T04:12:22.513Z,100114.81
2023-05-09T04:14:55.291Z,100118.50
2023-05-09T04:17:28.333Z,100123.00
2023-05-09T04:20:03.194Z,100120.97
2023-05-09T04:22:36.330Z,100120.84
2023-05-09T04:25:12.554Z,100122.34
2023-05-09T04:27:45.600Z,100120.84
2023-05-09T04:30:19.035Z,100120.09
2023-05-09T04:32:53.479Z,100120.03
2023-05-09T04:35:27.878Z,100117.16
2023-05-09T04:38:00.983Z,100121.59
2023-05-09T04:40:34.374Z,100128.06
2023-05-09T04:43:07.648Z,100130.34
2023-05-09T04:45:40.744Z,100130.63
2023-05-09T04:48:13.941Z,100138.41
2023-05-09T04:50:48.618Z,100136.22
2023-05-09T04:53:21.840Z,100135.63
2023-05-09T04:55:54.976Z,100132.81
2023-05-09T04:58:28.076Z,100127.31
2023-05-09T05:01:00.871Z,100132.03
2023-05-09T05:03:33.853Z,100131.44
2023-05-09T05:06:08.652Z,100138.41
2023-05-09T05:08:41.781Z,100132.19
2023-05-09T05:11:14.811Z,100141.47
2023-05-09T05:13:47.632Z,100143.13
2023-05-09T05:16:20.576Z,100136.25
2023-05-09T05:18:53.407Z,100137.53
2023-05-09T05:21:27.641Z,100136.41
2023-05-09T05:24:00.856Z,100145.72
2023-05-09T05:26:35.785Z,100131.34
2023-05-09T05:29:08.896Z,100133.28
2023-05-09T05:31:41.800Z,100134.13
2023-05-09T05:34:16.756Z,100139.09
2023-05-09T05:36:51.221Z,100139.38
2023-05-09T05:39:24.006Z,100132.88
2023-05-09T05:41:56.794Z,100132.00
2023-05-09T05:44:29.940Z,100135.03
2023-05-09T05:47:02.770Z,100136.09
2023-05-09T05:49:35.586Z,100137.41
2023-05-09T05:52:09.829Z,100147.75
2023-05-09T05:54:42.771Z,100140.50
2023-05-09T05:57:15.743Z,100142.56
2023-05-09T05:59:49.026Z,100148.41
2023-05-09T06:02:22.131Z,100153.16
2023-05-09T06:04:56.060Z,100149.31
2023-05-09T06:07:30.601Z,100154.25
2023-05-09T06:10:04.687Z,100154.22
2023-05-09T06:12:37.669Z,100153.59
2023-05-09T06:15:11.263Z,100150.16
2023-05-09T06:17:44.213Z,100154.00
2023-05-09T06:20:17.232Z,100142.13
2023-05-09T06:22:51.674Z,100154.78
2023-05-09T06:25:24.664Z,100148.97
2023-05-09T06:27:57.470Z,100146.09
2023-05-09T06:30:30.435Z,100130.75
2023-05-09T06:33:03.354Z,100149.81
2023-05-09T06:35:36.280Z,100149.38
2023-05-09T06:38:10.447Z,100144.16
2023-05-09T06:40:43.673Z,100144.06
2023-05-09T06:43:16.461Z,100154.63
2023-05-09T06:45:49.389Z,100152.50
2023-05-09T06:48:23.989Z,100154.19
2023-05-09T06:50:56.864Z,100154.22
2023-05-09T06:53:31.040Z,100151.25
2023-05-09T06:56:03.997Z,100155.19
2023-05-09T06:58:36.903Z,100153.06
2023-05-09T07:01:09.788Z,100153.22
2023-05-09T07:03:42.714Z,100146.16
2023-05-09T07:06:15.830Z,100151.66
2023-05-09T07:08:50.240Z,100156.75
2023-05-09T07:11:23.369Z,100149.41
2023-05-09T07:13:56.869Z,100151.81
2023-05-09T07:16:30.323Z,100155.75
2023-05-09T07:19:03.233Z,100156.75
2023-05-09T07:21:36.003Z,100147.63
2023-05-09T07:24:10.182Z,100154.34
2023-05-09T07:26:43.241Z,100156.00
2023-05-09T07:29:16.973Z,100165.34
2023-05-09T07:31:49.896Z,100154.91
2023-05-09T07:34:23.902Z,100160.81
2023-05-09T07:36:58.735Z,100166.75
2023-05-09T07:39:33.336Z,100161.97
2023-05-09T07:42:06.147Z,100157.69
2023-05-09T07:44:39.045Z,100167.66
2023-05-09T07:47:11.992Z,100171.63
2023-05-09T07:49:46.639Z,100175.34
2023-05-09T07:52:19.486Z,100174.66
2023-05-09T07:54:54.691Z,100179.47
2023-05-09T07:57:27.660Z,100179.44
2023-05-09T08:00:01.046Z,100179.09
2023-05-09T08:02:34.794Z,100175.53
2023-05-09T08:05:08.410Z,100181.09
2023-05-09T08:07:41.330Z,100185.97
2023-05-09T08:10:16.625Z,100181.78
2023-05-09T08:12:49.563Z,100200.34
2023-05-09T08:15:22.548Z,100188.22
2023-05-09T08:17:55.634Z,100197.94
2023-05-09T08:20:28.664Z,100191.88
2023-05-09T08:23:01.582Z,100194.13
2023-05-09T08:25:35.814Z,100188.75
2023-05-09T08:28:08.630Z,100185.38
2023-05-09T08:30:41.754Z,100185.75
2023-05-09T08:33:15.882Z,100174.81
2023-05-09T08:35:51.471Z,100178.03
2023-05-09T08:38:24.851Z,100190.41
2023-05-09T08:41:02.720Z,100186.78
2023-05-09T08:43:38.778Z,100179.38
2023-05-09T08:46:12.057Z,100182.56
2023-05-09T08:48:45.612Z,100184.59
2023-05-09T08:51:18.525Z,100183.69
2023-05-09T08:53:51.813Z,100176.59
2023-05-09T08:56:26.767Z,100187.94
2023-05-09T08:59:00.063Z,100188.91
2023-05-09T09:01:34.493Z,100182.84
2023-05-09T09:04:08.016Z,100185.38
2023-05-09T09:06:41.468Z,100183.94
2023-05-09T09:09:14.992Z,100179.63
2023-05-09T09:11:49.532Z,100178.81
2023-05-09T09:14:25.544Z,100172.09
2023-05-09T09:16:59.597Z,100177.19
2023-05-09T09:19:34.956Z,100171.97
2023-05-09T09:22:08.896Z,100169.44
2023-05-09T09:24:41.975Z,100171.28
2023-05-09T09:27:16.722Z,100176.63
2023-05-09T09:29:49.605Z,100180.63
2023-05-09T09:32:23.115Z,100186.50
2023-05-09T09:35:06.956Z,100180.75
2023-05-09T09:37:42.833Z,100176.50
2023-05-09T09:40:15.854Z,100172.13
2023-05-09T09:42:53.038Z,100171.56
2023-05-09T09:45:26.023Z,100174.94
2023-05-09T09:47:59.343Z,100177.78
2023-05-09T09:50:32.428Z,100174.66
2023-05-09T09:53:05.315Z,100181.00
2023-05-09T09:55:38.220Z,100173.25
2023-05-09T09:58:18.780Z,100182.09
2023-05-09T10:01:05.711Z,100174.94
2023-05-09T10:03:40.485Z,100178.59
2023-05-09T10:06:14.113Z,100177.06
2023-05-09T10:08:49.055Z,100177.63
2023-05-09T10:11:22.106Z,100180.47
2023-05-09T10:13:56.671Z,100181.13
2023-05-09T10:16:42.600Z,100181.72
2023-05-09T10:19:18.917Z,100177.94
2023-05-09T10:21:53.226Z,100173.66
2023-05-09T10:24:29.491Z,100173.66
2023-05-09T10:27:07.269Z,100173.56
2023-05-09T10:29:43.882Z,100168.59
2023-05-09T10:32:20.576Z,100171.84
2023-05-09T10:34:55.733Z,100172.56
2023-05-09T10:37:30.977Z,100172.66
2023-05-09T10:40:05.756Z,100173.09
2023-05-09T10:42:38.840Z,100169.59
2023-05-09T10:45:14.109Z,100172.69
2023-05-09T10:47:48.442Z,100168.59
2023-05-09T10:50:22.450Z,100167.47
2023-05-09T10:53:14.342Z,100177.22
2023-05-09T10:55:51.668Z,100168.13
2023-05-09T10:58:29.019Z,100173.38
2023-05-09T11:01:04.200Z,100178.06
2023-05-09T11:03:56.263Z,100178.59
2023-05-09T11:06:41.840Z,100170.56
2023-05-09T11:09:28.555Z,100181.59
2023-05-09T11:12:08.298Z,100188.50
2023-05-09T11:14:43.022Z,100176.41
2023-05-09T11:17:28.866Z,100173.56
2023-05-09T11:20:05.614Z,100169.97
2023-05-09T11:22:42.233Z,100177.34
2023-05-09T11:25:17.019Z,100173.41
2023-05-09T11:27:52.048Z,100178.22
2023-05-09T11:30:36.070Z,100179.75
2023-05-09T11:33:22.441Z,100177.47
2023-05-09T11:36:10.174Z,100163.09
2023-05-09T11:38:43.274Z,100156.72
2023-05-09T11:41:16.578Z,100156.03
2023-05-09T11:43:50.626Z,100158.41
2023-05-09T11:46:23.869Z,100164.75
2023-05-09T11:48:58.255Z,100160.69
2023-05-09T11:51:31.379Z,100160.25
2023-05-09T11:54:05.264Z,100156.03
2023-05-09T11:56:39.757Z,100149.41
2023-05-09T11:59:14.762Z,100143.56
2023-05-09T12:01:47.791Z,100151.59
2023-05-09T12:04:22.123Z,100147.53
2023-05-09T12:06:55.039Z,100151.72
2023-05-09T12:09:30.864Z,100146.91
2023-05-09T12:12:10.908Z,100144.09
2023-05-09T12:14:43.767Z,100139.28
2023-05-09T12:17:16.572Z,100139.94
2023-05-09T12:19:50.852Z,100138.28
2023-05-09T12:22:23.789Z,100132.56
2023-05-09T12:24:56.602Z,100132.75
2023-05-09T12:27:32.098Z,100127.06
2023-05-09T12:30:08.589Z,100130.09
2023-05-09T12:32:42.721Z,100117.53
2023-05-09T12:35:17.344Z,100118.84
2023-05-09T12:38:00.071Z,100117.44
2023-05-09T12:40:33.111Z,100124.41
2023-05-09T12:43:06.295Z,100112.41
2023-05-09T12:45:40.044Z,100106.84
2023-05-09T12:48:13.714Z,100113.00
2023-05-09T12:50:49.462Z,100101.94
2023-05-09T12:53:25.757Z,100113.97
2023-05-09T12:56:02.822Z,100109.31
2023-05-09T12:58:35.868Z,100098.06
2023-05-09T13:01:08.844Z,100099.03
2023-05-09T13:03:42.539Z,100104.22
2023-05-09T13:06:17.036Z,100096.97
2023-05-09T13:08:58.524Z,100099.47
2023-05-09T13:11:31.580Z,100096.28
2023-05-09T13:14:04.526Z,100095.09
2023-05-09T13:16:37.825Z,100088.28
2023-05-09T13:19:11.379Z,100089.28
2023-05-09T13:21:45.620Z,100086.47
2023-05-09T13:24:18.640Z,100089.97
2023-05-09T13:26:51.691Z,100078.13
2023-05-09T13:29:25.023Z,100079.56
2023-05-09T13:31:58.705Z,100082.91
2023-05-09T13:34:31.771Z,100088.34
2023-05-09T13:37:06.119Z,100090.78
2023-05-09T13:39:39.009Z,100098.69
2023-05-09T13:42:12.177Z,100088.06
2023-05-09T13:44:45.039Z,100086.19
2023-05-09T13:47:18.145Z,100092.03
2023-05-09T13:49:52.203Z,100093.91
2023-05-09T13:52:26.885Z,100101.81
2023-05-09T13:54:59.670Z,100092.56
2023-05-09T13:57:32.572Z,100090.81
2023-05-09T14:00:05.996Z,100094.28
2023-05-09T14:02:39.152Z,100101.47
2023-05-09T14:05:12.162Z,100090.13
2023-05-09T14:07:46.371Z,100090.44
2023-05-09T14:10:19.429Z,100089.66
2023-05-09T14:12:53.384Z,100082.38
2023-05-09T14:15:26.248Z,100087.25
2023-05-09T14:17:59.072Z,100091.69
2023-05-09T14:20:35.333Z,100083.38
2023-05-09T14:23:10.043Z,100080.59
2023-05-09T14:25:43.117Z,100085.06
2023-05-09T14:28:16.105Z,100082.22
2023-05-09T14:30:49.181Z,100083.13
2023-05-09T14:33:22.137Z,100096.28
2023-05-09T14:35:54.953Z,100089.44
2023-05-09T14:38:29.561Z,100082.31
2023-05-09T14:41:02.852Z,100081.09
2023-05-09T14:43:35.868Z,100074.34
2023-05-09T14:46:08.842Z,100077.59
2023-05-09T14:48:41.901Z,100072.75
2023-05-09T14:51:14.929Z,100072.63
2023-05-09T14:53:49.519Z,100078.28
2023-05-09T14:56:23.336Z,100076.66
2023-05-09T14:58:56.212Z,100076.34
2023-05-09T15:01:29.179Z,100080.97
2023-05-09T15:04:02.404Z,100076.59
2023-05-09T15:06:35.528Z,100082.25
2023-05-09T15:09:10.243Z,100081.84
2023-05-09T15:11:48.400Z,100083.34
2023-05-09T15:14:22.075Z,100076.03
2023-05-09T15:16:55.446Z,100073.03
2023-05-09T15:19:31.180Z,100071.13
2023-05-09T15:22:04.852Z,100072.31
2023-05-09T15:24:42.648Z,100075.47
2023-05-09T15:27:15.586Z,100077.59
2023-05-09T15:29:49.005Z,100073.34
2023-05-09T15:32:22.243Z,100073.28
2023-05-09T15:34:55.064Z,100070.81
2023-05-09T15:37:28.437Z,100077.63
2023-05-09T15:40:02.711Z,100072.69
2023-05-09T15:42:35.658Z,100074.19
2023-05-09T15:45:10.012Z,100068.16
2023-05-09T15:47:43.071Z,100076.81
2023-05-09T15:50:16.239Z,100069.78
2023-05-09T15:52:49.662Z,100079.25
2023-05-09T15:55:24.061Z,100072.97
2023-05-09T15:57:56.975Z,100072.38
2023-05-09T16:00:30.178Z,100078.38
2023-05-09T16:03:03.232Z,100071.59
2023-05-09T16:05:36.561Z,100078.50
2023-05-09T16:08:09.696Z,100078.94
2023-05-09T16:10:43.925Z,100079.50
2023-05-09T16:13:18.161Z,100080.47
2023-05-09T16:15:51.217Z,100080.94
2023-05-09T16:18:24.266Z,100081.78
2023-05-09T16:20:57.198Z,100077.19
2023-05-09T16:23:30.066Z,100087.22
2023-05-09T16:26:04.360Z,100084.09
2023-05-09T16:28:37.255Z,100085.34
2023-05-09T16:31:10.502Z,100075.41
2023-05-09T16:33:43.981Z,100083.97
2023-05-09T16:36:16.979Z,100086.41
2023-05-09T16:38:49.932Z,100093.78
2023-05-09T16:41:24.331Z,100090.66
2023-05-09T16:43:57.369Z,100087.09
2023-05-09T16:46:30.260Z,100091.63
2023-05-09T16:49:03.365Z,100093.94
2023-05-09T16:51:36.333Z,100101.19
2023-05-09T16:54:09.231Z,100093.03
2023-05-09T16:56:44.119Z,100088.59
2023-05-09T16:59:17.509Z,100101.25
2023-05-09T17:01:50.552Z,100092.53
2023-05-09T17:04:23.765Z,100108.75
2023-05-09T17:06:56.758Z,100104.50
2023-05-09T17:09:30.313Z,100106.16
2023-05-09T17:12:04.773Z,100101.81
2023-05-09T17:14:37.645Z,100105.91
2023-05-09T17:17:11.272Z,100116.31
2023-05-09T17:19:44.459Z,100110.34
2023-05-09T17:22:17.500Z,100112.38
2023-05-09T17:24:50.335Z,100115.91
2023-05-09T17:27:24.773Z,100112.22
2023-05-09T17:29:57.541Z,100125.81
2023-05-09T17:32:30.882Z,100127.19
2023-05-09T17:35:04.892Z,100125.53
2023-05-09T17:37:37.820Z,100127.22
2023-05-09T17:40:11.532Z,100119.59
2023-05-09T17:42:45.751Z,100129.06
2023-05-09T17:45:18.719Z,100118.31
2023-05-09T17:47:51.644Z,100120.47
2023-05-09T17:50:24.626Z,100126.81
2023-05-09T17:52:57.475Z,100128.34
2023-05-09T17:55:30.436Z,100132.47
2023-05-09T17:58:04.886Z,100127.25
2023-05-09T18:00:38.020Z,100129.06
2023-05-09T18:03:11.522Z,100135.13
2023-05-09T18:05:44.423Z,100134.59
2023-05-09T18:08:17.685Z,100135.69
2023-05-09T18:10:50.608Z,100147.25
2023-05-09T18:13:25.521Z,100142.19
2023-05-09T18:16:00.008Z,100154.19
2023-05-09T18:18:33.122Z,100160.84
2023-05-09T18:21:09.635Z,100159.69
2023-05-09T18:23:42.544Z,100164.81
2023-05-09T18:26:15.437Z,100160.97
2023-05-09T18:28:49.619Z,100167.13
2023-05-09T18:31:22.721Z,100168.66
2023-05-09T18:33:56.374Z,100165.25
2023-05-09T18:36:30.107Z,100169.41
2023-05-09T18:39:03.095Z,100175.03
2023-05-09T18:41:36.065Z,100172.00
2023-05-09T18:44:10.866Z,100174.13
2023-05-09T18:46:44.417Z,100172.38
2023-05-09T18:49:17.353Z,100175.16
2023-05-09T18:51:50.555Z,100175.38
2023-05-09T18:54:23.515Z,100171.72
2023-05-09T18:56:56.568Z,100184.41
2023-05-09T18:59:31.892Z,100178.47
2023-05-09T19:02:05.106Z,100189.13
2023-05-09T19:04:38.255Z,100184.50
2023-05-09T19:07:13.241Z,100185.53
2023-05-09T19:09:46.367Z,100179.03
2023-05-09T19:12:19.277Z,100181.38
2023-05-09T19:14:53.826Z,100183.16
2023-05-09T19:17:27.008Z,100184.09
2023-05-09T19:20:00.966Z,100182.81
2023-05-09T19:22:33.782Z,100192.91
2023-05-09T19:25:07.657Z,100196.44
2023-05-09T19:27:40.883Z,100202.72
2023-05-09T19:30:16.571Z,100202.28
2023-05-09T19:32:49.824Z,100206.28
2023-05-09T19:35:23.188Z,100206.13
2023-05-09T19:37:59.006Z,100206.63
2023-05-09T19:40:32.440Z,100205.47
2023-05-09T19:43:05.853Z,100210.25
2023-05-09T19:45:40.588Z,100205.59
2023-05-09T19:48:15.695Z,100203.69
2023-05-09T19:50:48.985Z,100193.28
2023-05-09T19:53:21.957Z,100199.91
2023-05-09T19:55:55.536Z,100199.00
2023-05-09T19:58:29.045Z,100190.72
2023-05-09T20:01:05.277Z,100193.06
2023-05-09T20:03:41.020Z,100198.00
2023-05-09T20:06:14.484Z,100202.94
2023-05-09T20:08:47.576Z,100203.19
2023-05-09T20:11:21.701Z,100206.13
2023-05-09T20:13:54.589Z,100199.00
2023-05-09T20:16:29.011Z,100199.38
2023-05-09T20:19:03.927Z,100200.06
2023-05-09T20:21:39.501Z,100201.09
2023-05-09T20:24:12.475Z,100211.28
2023-05-09T20:26:45.224Z,100207.38
2023-05-09T20:29:20.910Z,100205.78
2023-05-09T20:31:55.556Z,100203.03
2023-05-09T20:34:28.464Z,100199.50
2023-05-09T20:37:01.548Z,100194.50
2023-05-09T20:39:34.737Z,100200.13
2023-05-09T20:42:07.771Z,100198.75
2023-05-09T20:44:42.229Z,100198.41
2023-05-09T20:47:17.491Z,100192.22
2023-05-09T20:49:50.552Z,100200.44
2023-05-09T20:52:23.637Z,100195.72
2023-05-09T20:54:56.606Z,100195.50
2023-05-09T20:57:29.405Z,100201.84
2023-05-09T21:00:02.241Z,100207.41
2023-05-09T21:02:36.655Z,100201.16
2023-05-09T21:05:10.238Z,100201.94
2023-05-09T21:07:43.255Z,100201.53
2023-05-09T21:10:16.389Z,100197.56
2023-05-09T21:12:49.536Z,100196.16
2023-05-09T21:15:22.543Z,100197.91
2023-05-09T21:17:56.903Z,100197.69
2023-05-09T21:20:30.002Z,100202.28
2023-05-09T21:23:03.156Z,100193.94
2023-05-09T21:25:35.985Z,100198.75
2023-05-09T21:28:09.187Z,100196.00
2023-05-09T21:30:42.054Z,100184.28
2023-05-09T21:33:16.340Z,100186.88
2023-05-09T21:35:49.206Z,100192.81
2023-05-09T21:38:22.085Z,100192.13
2023-05-09T21:40:55.391Z,100192.16
2023-05-09T21:43:28.996Z,100199.59
2023-05-09T21:46:01.899Z,100193.53
2023-05-09T21:48:36.453Z,100187.66
2023-05-09T21:51:09.586Z,100191.19
2023-05-09T21:53:42.673Z,100184.97
2023-05-09T21:56:15.767Z,100189.47
2023-05-09T21:58:48.967Z,100194.91
2023-05-09T22:01:21.761Z,100176.63
2023-05-09T22:03:56.482Z,100179.19
2023-05-09T22:06:29.484Z,100180.09
2023-05-09T22:09:02.466Z,100181.06
2023-05-09T22:11:35.504Z,100184.19
2023-05-09T22:14:10.233Z,100182.63
2023-05-09T22:16:43.202Z,100179.63
2023-05-09T22:19:17.546Z,100180.66
2023-05-09T22:21:50.784Z,100175.25
2023-05-09T22:24:23.548Z,100175.63
2023-05-09T22:26:56.417Z,100183.88
2023-05-09T22:29:29.348Z,100173.84
2023-05-09T22:32:02.269Z,100183.53
2023-05-09T22:34:36.523Z,100184.97
2023-05-09T22:37:10.011Z,100178.97
2023-05-09T22:39:42.941Z,100173.50
2023-05-09T22:42:16.141Z,100173.03
2023-05-09T22:44:50.128Z,100169.28
2023-05-09T22:47:22.895Z,100167.09
2023-05-09T22:49:57.329Z,100167.94
2023-05-09T22:52:30.160Z,100162.13
2023-05-09T22:55:03.588Z,100163.56
2023-05-09T22:57:36.905Z,100161.31
2023-05-09T23:00:10.241Z,100153.00
2023-05-09T23:02:43.109Z,100157.16
2023-05-09T23:05:17.473Z,100161.56
2023-05-09T23:07:50.239Z,100154.06
2023-05-09T23:10:23.307Z,100158.56
2023-05-09T23:12:56.120Z,100151.25
2023-05-09T23:15:29.059Z,100154.66
2023-05-09T23:18:01.948Z,100150.66
2023-05-09T23:20:36.677Z,100150.66
2023-05-09T23:23:09.657Z,100144.56
2023-05-09T23:25:42.414Z,100153.28
2023-05-09T23:28:15.266Z,100146.31
2023-05-09T23:30:48.090Z,100136.84
2023-05-09T23:33:20.900Z,100134.63
2023-05-09T23:35:55.505Z,100123.41
2023-05-09T23:38:28.350Z,100123.75
2023-05-09T23:41:01.397Z,100114.50
2023-05-09T23:43:34.964Z,100117.84
2023-05-09T23:46:08.258Z,100119.28
2023-05-09T23:48:41.602Z,100121.25
2023-05-09T23:51:15.942Z,100116.88
2023-05-09T23:53:48.758Z,100112.72
2023-05-09T23:56:22.570Z,100112.78
2023-05-09T23:58:55.701Z,100113.00
